createdAt,value
2018-02-15T00:02:13.044Z,5.64
2018-02-15T00:04:40.569Z,5.65
2018-02-15T00:07:08.196Z,5.62
2018-02-15T00:09:35.734Z,5.58
2018-02-15T00:12:03.272Z,5.62
2018-02-15T00:14:30.817Z,5.59
2018-02-15T00:16:58.356Z,5.59
2018-02-15T00:19:25.886Z,5.57
2018-02-15T00:21:53.441Z,5.59
2018-02-15T00:24:20.955Z,5.57
2018-02-15T00:26:48.525Z,5.49
2018-02-15T00:29:16.061Z,5.54
2018-02-15T00:31:43.613Z,5.55
2018-02-15T00:34:11.130Z,5.55
2018-02-15T00:36:38.659Z,5.55
2018-02-15T00:39:06.200Z,5.50
2018-02-15T00:41:33.722Z,5.52
2018-02-15T00:44:01.280Z,5.51
2018-02-15T00:46:28.844Z,5.50
2018-02-15T00:48:56.397Z,5.45
2018-02-15T00:51:23.928Z,5.46
2018-02-15T00:53:51.464Z,5.46
2018-02-15T00:56:19.024Z,5.45
2018-02-15T00:58:46.555Z,5.47
2018-02-15T01:01:14.112Z,5.46
2018-02-15T01:03:41.636Z,5.46
2018-02-15T01:06:09.158Z,5.44
2018-02-15T01:08:36.679Z,5.44
2018-02-15T01:11:04.208Z,5.45
2018-02-15T01:13:32.018Z,5.43
2018-02-15T01:15:59.533Z,5.34
2018-02-15T01:18:27.056Z,5.35
2018-02-15T01:20:54.579Z,5.38
2018-02-15T01:23:22.112Z,5.41
2018-02-15T01:25:49.667Z,5.38
2018-02-15T01:28:17.203Z,5.35
2018-02-15T01:30:44.814Z,5.31
2018-02-15T01:33:12.349Z,5.37
2018-02-15T01:35:39.886Z,5.36
2018-02-15T01:38:07.413Z,5.35
2018-02-15T01:40:34.933Z,5.34
2018-02-15T01:43:02.471Z,5.33
2018-02-15T01:45:29.999Z,5.34
2018-02-15T01:47:57.522Z,5.34
2018-02-15T01:50:25.033Z,5.33
2018-02-15T01:52:52.540Z,5.29
2018-02-15T01:55:20.082Z,5.25
2018-02-15T01:57:47.593Z,5.32
2018-02-15T02:00:15.151Z,5.28
2018-02-15T02:02:42.707Z,5.29
2018-02-15T02:05:10.492Z,5.26
2018-02-15T02:07:38.009Z,5.28
2018-02-15T02:10:05.548Z,5.28
2018-02-15T02:12:33.077Z,5.20
2018-02-15T02:15:00.594Z,5.28
2018-02-15T02:17:28.113Z,5.27
2018-02-15T02:19:55.622Z,5.27
2018-02-15T02:22:23.492Z,5.28
2018-02-15T02:24:51.073Z,5.27
2018-02-15T02:27:18.592Z,5.27
2018-02-15T02:29:46.137Z,5.29
2018-02-15T02:32:13.649Z,5.30
2018-02-15T02:34:41.186Z,5.30
2018-02-15T02:37:08.752Z,5.29
2018-02-15T02:39:36.290Z,5.31
2018-02-15T02:42:03.805Z,5.29
2018-02-15T02:44:31.322Z,5.32
2018-02-15T02:46:58.843Z,5.31
2018-02-15T02:49:26.391Z,5.29
2018-02-15T02:51:53.901Z,5.30
2018-02-15T02:54:21.419Z,5.29
2018-02-15T02:56:48.938Z,5.25
2018-02-15T02:59:16.452Z,5.31
2018-02-15T03:01:44.013Z,5.33
2018-02-15T03:04:11.596Z,5.33
2018-02-15T03:06:39.115Z,5.32
2018-02-15T03:09:06.643Z,5.31
2018-02-15T03:11:34.154Z,5.32
2018-02-15T03:14:01.738Z,5.35
2018-02-15T03:16:29.307Z,5.35
2018-02-15T03:18:56.829Z,5.32
2018-02-15T03:21:24.396Z,5.34
2018-02-15T03:23:51.920Z,5.36
2018-02-15T03:26:19.491Z,5.35
2018-02-15T03:28:47.030Z,5.37
2018-02-15T03:31:14.566Z,5.39
2018-02-15T03:33:42.093Z,5.34
2018-02-15T03:36:09.706Z,5.33
2018-02-15T03:38:37.229Z,5.30
2018-02-15T03:41:04.787Z,5.29
2018-02-15T03:43:32.336Z,5.26
2018-02-15T03:45:59.867Z,5.24
2018-02-15T03:48:27.398Z,5.26
2018-02-15T03:50:54.914Z,5.24
2018-02-15T03:53:22.483Z,5.26
2018-02-15T03:55:50.028Z,5.26
2018-02-15T03:58:17.537Z,5.27
2018-02-15T04:00:45.084Z,5.31
2018-02-15T04:03:12.639Z,5.32
2018-02-15T04:05:40.247Z,5.35
2018-02-15T04:08:07.810Z,5.33
2018-02-15T04:10:35.380Z,5.37
2018-02-15T04:13:02.947Z,5.45
2018-02-15T04:15:30.473Z,5.45
2018-02-15T04:17:58.011Z,5.46
2018-02-15T04:20:25.574Z,5.49
2018-02-15T04:22:53.139Z,5.52
2018-02-15T04:25:20.689Z,5.53
2018-02-15T04:27:48.205Z,5.56
2018-02-15T04:30:15.878Z,5.57
2018-02-15T04:32:45.299Z,5.57
2018-02-15T04:35:12.946Z,5.63
2018-02-15T04:37:40.474Z,5.63
2018-02-15T04:40:09.102Z,5.65
2018-02-15T04:42:36.638Z,5.68
2018-02-15T04:45:04.675Z,5.71
2018-02-15T04:47:32.219Z,5.73
2018-02-15T04:49:59.780Z,5.74
2018-02-15T04:52:27.347Z,5.74
2018-02-15T04:54:54.930Z,5.71
2018-02-15T04:57:22.560Z,5.79
2018-02-15T04:59:50.197Z,5.80
2018-02-15T05:02:18.546Z,5.81
2018-02-15T05:04:46.062Z,5.80
2018-02-15T05:07:13.708Z,5.84
2018-02-15T05:09:41.252Z,5.82
2018-02-15T05:12:08.789Z,5.85
2018-02-15T05:14:36.314Z,5.86
2018-02-15T05:17:03.845Z,5.87
2018-02-15T05:19:31.482Z,5.88
2018-02-15T05:21:59.039Z,5.89
2018-02-15T05:24:26.570Z,5.90
2018-02-15T05:26:54.103Z,5.83
2018-02-15T05:29:21.635Z,5.89
2018-02-15T05:31:49.252Z,7.49
2018-02-15T05:34:16.796Z,6.87
2018-02-15T05:36:44.337Z,6.67
2018-02-15T05:39:11.853Z,6.57
2018-02-15T05:41:39.381Z,6.49
2018-02-15T05:44:06.926Z,6.37
2018-02-15T05:46:34.472Z,6.29
2018-02-15T05:49:02.085Z,6.17
2018-02-15T05:51:29.892Z,6.08
2018-02-15T05:53:57.412Z,6.01
2018-02-15T05:56:25.058Z,6.02
2018-02-15T05:58:52.593Z,5.98
2018-02-15T06:01:20.331Z,6.02
2018-02-15T06:03:47.862Z,6.03
2018-02-15T06:06:15.448Z,6.07
2018-02-15T06:08:42.989Z,6.16
2018-02-15T06:11:10.524Z,6.30
2018-02-15T06:13:38.101Z,6.36
2018-02-15T06:16:05.621Z,6.46
2018-02-15T06:18:33.153Z,6.46
2018-02-15T06:21:00.673Z,6.53
2018-02-15T06:23:28.217Z,6.48
2018-02-15T06:25:55.765Z,6.48
2018-02-15T06:28:23.290Z,6.54
2018-02-15T06:30:50.858Z,6.53
2018-02-15T06:33:18.419Z,6.62
2018-02-15T06:35:45.943Z,6.68
2018-02-15T06:38:13.535Z,6.88
2018-02-15T06:40:41.064Z,7.04
2018-02-15T06:43:08.622Z,7.17
2018-02-15T06:45:36.161Z,7.32
2018-02-15T06:48:03.733Z,7.73
2018-02-15T06:50:31.278Z,9.12
2018-02-15T06:52:58.965Z,10.96
2018-02-15T06:55:26.528Z,12.54
2018-02-15T06:57:54.053Z,13.85
2018-02-15T07:00:21.618Z,15.10
2018-02-15T07:02:49.133Z,16.16
2018-02-15T07:05:16.663Z,17.07
2018-02-15T07:07:44.202Z,17.89
2018-02-15T07:10:12.684Z,18.68
2018-02-15T07:12:40.232Z,19.33
2018-02-15T07:15:07.758Z,19.86
2018-02-15T07:17:36.240Z,20.40
2018-02-15T07:20:03.788Z,20.92
2018-02-15T07:22:32.068Z,21.39
2018-02-15T07:24:59.614Z,21.71
2018-02-15T07:27:27.121Z,22.13
2018-02-15T07:29:54.666Z,22.56
2018-02-15T07:32:22.198Z,23.06
2018-02-15T07:34:49.843Z,23.44
2018-02-15T07:37:18.170Z,23.98
2018-02-15T07:39:45.711Z,24.53
2018-02-15T07:42:13.228Z,25.04
2018-02-15T07:44:40.873Z,25.32
2018-02-15T07:47:08.438Z,23.56
2018-02-15T07:49:35.973Z,21.75
2018-02-15T07:52:03.609Z,20.22
2018-02-15T07:54:31.156Z,19.04
2018-02-15T07:56:58.676Z,18.00
2018-02-15T07:59:26.295Z,17.19
2018-02-15T08:01:53.860Z,16.64
2018-02-15T08:04:21.412Z,16.37
2018-02-15T08:06:48.977Z,16.13
2018-02-15T08:09:16.517Z,15.64
2018-02-15T08:11:44.039Z,15.31
2018-02-15T08:14:11.554Z,14.99
2018-02-15T08:16:39.080Z,14.70
2018-02-15T08:19:06.604Z,14.45
2018-02-15T08:21:34.155Z,14.20
2018-02-15T08:24:01.688Z,13.81
2018-02-15T08:26:29.506Z,13.72
2018-02-15T08:28:57.084Z,13.49
2018-02-15T08:31:24.747Z,13.21
2018-02-15T08:33:52.280Z,12.86
2018-02-15T08:36:19.812Z,12.58
2018-02-15T08:38:47.349Z,12.52
2018-02-15T08:41:14.879Z,12.41
2018-02-15T08:43:42.421Z,12.33
2018-02-15T08:46:09.929Z,12.38
2018-02-15T08:48:37.471Z,12.33
2018-02-15T08:51:05.012Z,12.48
2018-02-15T08:53:32.564Z,12.40
2018-02-15T08:56:00.144Z,12.36
2018-02-15T08:58:27.705Z,12.20
2018-02-15T09:00:55.264Z,12.23
2018-02-15T09:03:22.787Z,12.38
2018-02-15T09:05:50.298Z,12.62
2018-02-15T09:08:17.820Z,12.99
2018-02-15T09:10:45.339Z,13.24
2018-02-15T09:13:12.878Z,13.50
2018-02-15T09:15:40.426Z,13.45
2018-02-15T09:18:07.938Z,15.36
2018-02-15T09:20:35.471Z,16.81
2018-02-15T09:23:02.991Z,17.38
2018-02-15T09:25:30.539Z,17.16
2018-02-15T09:27:58.082Z,16.75
2018-02-15T09:30:25.696Z,16.33
2018-02-15T09:32:53.212Z,15.60
2018-02-15T09:35:20.736Z,14.90
2018-02-15T09:37:48.308Z,14.17
2018-02-15T09:40:15.847Z,13.54
2018-02-15T09:42:43.372Z,13.05
2018-02-15T09:45:10.897Z,12.66
2018-02-15T09:47:38.424Z,12.43
2018-02-15T09:50:05.990Z,12.33
2018-02-15T09:52:33.511Z,12.26
2018-02-15T09:55:01.036Z,12.13
2018-02-15T09:57:28.558Z,11.94
2018-02-15T09:59:56.082Z,11.85
2018-02-15T10:02:23.632Z,11.63
2018-02-15T10:04:51.140Z,11.52
2018-02-15T10:07:18.662Z,11.44
2018-02-15T10:09:46.166Z,11.24
2018-02-15T10:12:13.681Z,11.18
2018-02-15T10:14:41.242Z,11.12
2018-02-15T10:17:08.764Z,11.09
2018-02-15T10:19:36.324Z,11.06
2018-02-15T10:22:03.876Z,11.34
2018-02-15T10:24:31.395Z,11.69
2018-02-15T10:26:58.943Z,11.98
2018-02-15T10:29:26.458Z,12.27
2018-02-15T10:31:54.007Z,12.47
2018-02-15T10:34:21.530Z,12.62
2018-02-15T10:36:49.038Z,12.87
2018-02-15T10:39:16.559Z,12.98
2018-02-15T10:41:44.075Z,12.99
2018-02-15T10:44:11.634Z,12.93
2018-02-15T10:46:39.183Z,12.84
2018-02-15T10:49:06.727Z,12.69
2018-02-15T10:51:34.263Z,12.53
2018-02-15T10:54:01.783Z,12.35
2018-02-15T10:56:29.313Z,12.25
2018-02-15T10:58:56.840Z,12.28
2018-02-15T11:01:29.891Z,12.37
2018-02-15T11:04:02.897Z,12.59
2018-02-15T11:06:30.472Z,13.00
2018-02-15T11:08:58.013Z,13.52
2018-02-15T11:11:25.552Z,13.89
2018-02-15T11:13:53.096Z,14.30
2018-02-15T11:16:20.610Z,14.55
2018-02-15T11:18:48.165Z,14.90
2018-02-15T11:21:15.692Z,15.22
2018-02-15T11:23:43.204Z,15.55
2018-02-15T11:26:10.752Z,15.50
2018-02-15T11:28:38.292Z,15.38
2018-02-15T11:31:05.855Z,15.35
2018-02-15T11:33:33.391Z,15.03
2018-02-15T11:36:00.920Z,14.83
2018-02-15T11:38:28.488Z,14.81
2018-02-15T11:40:56.245Z,14.96
2018-02-15T11:43:23.797Z,15.00
2018-02-15T11:45:51.328Z,15.35
2018-02-15T11:48:18.842Z,15.71
2018-02-15T11:50:46.401Z,16.00
2018-02-15T11:53:14.141Z,16.32
2018-02-15T11:55:41.667Z,16.78
2018-02-15T11:58:10.029Z,16.70
2018-02-15T12:00:37.569Z,16.54
2018-02-15T12:03:05.082Z,16.41
2018-02-15T12:05:32.607Z,16.18
2018-02-15T12:08:00.138Z,15.88
2018-02-15T12:10:27.668Z,15.72
2018-02-15T12:12:55.233Z,15.72
2018-02-15T12:15:22.753Z,15.71
2018-02-15T12:17:50.342Z,15.95
2018-02-15T12:20:17.886Z,16.12
2018-02-15T12:22:45.431Z,16.26
2018-02-15T12:25:12.984Z,16.33
2018-02-15T12:27:40.503Z,16.36
2018-02-15T12:30:08.045Z,16.77
2018-02-15T12:32:35.578Z,16.62
2018-02-15T12:35:03.101Z,16.38
2018-02-15T12:37:30.637Z,16.03
2018-02-15T12:39:58.168Z,15.74
2018-02-15T12:42:25.716Z,15.52
2018-02-15T12:44:53.385Z,15.28
2018-02-15T12:47:20.971Z,15.09
2018-02-15T12:49:48.737Z,14.91
2018-02-15T12:52:16.601Z,14.70
2018-02-15T12:54:44.130Z,14.51
2018-02-15T12:57:11.667Z,14.32
2018-02-15T12:59:39.220Z,14.07
2018-02-15T13:02:06.882Z,13.90
2018-02-15T13:04:34.398Z,13.84
2018-02-15T13:07:01.950Z,13.82
2018-02-15T13:09:29.501Z,13.78
2018-02-15T13:11:57.051Z,13.75
2018-02-15T13:14:24.866Z,13.70
2018-02-15T13:16:56.027Z,13.70
2018-02-15T13:22:36.350Z,13.56
2018-02-15T13:25:03.896Z,13.50
2018-02-15T13:27:43.788Z,13.43
2018-02-15T13:30:11.355Z,13.38
2018-02-15T13:32:38.901Z,13.32
2018-02-15T13:35:06.438Z,13.37
2018-02-15T13:37:34.004Z,13.31
2018-02-15T13:40:01.517Z,13.26
2018-02-15T13:42:29.044Z,13.11
2018-02-15T13:44:56.616Z,13.07
2018-02-15T13:47:24.149Z,12.89
2018-02-15T13:49:51.680Z,12.88
2018-02-15T13:52:19.254Z,12.87
2018-02-15T13:54:46.788Z,12.78
2018-02-15T13:57:14.322Z,12.62
2018-02-15T13:59:41.861Z,12.47
2018-02-15T14:02:09.404Z,12.38
2018-02-15T14:04:36.927Z,12.28
2018-02-15T14:07:04.443Z,12.23
2018-02-15T14:09:31.982Z,12.16
2018-02-15T14:11:59.511Z,11.92
2018-02-15T14:14:27.398Z,11.94
2018-02-15T14:16:55.024Z,11.85
2018-02-15T14:19:22.563Z,11.69
2018-02-15T14:21:50.694Z,11.54
2018-02-15T14:24:18.251Z,11.38
2018-02-15T14:26:46.034Z,11.25
2018-02-15T14:29:13.563Z,11.16
2018-02-15T14:31:41.116Z,10.95
2018-02-15T14:34:08.676Z,10.65
2018-02-15T14:36:36.232Z,10.60
2018-02-15T14:39:03.802Z,10.34
2018-02-15T14:41:31.337Z,10.38
2018-02-15T14:43:58.888Z,10.07
2018-02-15T14:46:26.443Z,10.06
2018-02-15T14:48:53.972Z,9.91
2018-02-15T14:51:21.486Z,9.82
2018-02-15T14:53:49.360Z,9.66
2018-02-15T14:56:17.711Z,9.49
2018-02-15T14:58:45.278Z,9.59
2018-02-15T15:01:12.806Z,9.53
2018-02-15T15:03:40.321Z,9.30
2018-02-15T15:06:07.838Z,9.29
2018-02-15T15:08:35.387Z,9.23
2018-02-15T15:11:02.915Z,9.14
2018-02-15T15:13:30.439Z,8.89
2018-02-15T15:15:57.969Z,9.00
2018-02-15T15:18:25.468Z,8.95
2018-02-15T15:20:53.005Z,9.66
2018-02-15T15:23:20.542Z,9.43
2018-02-15T15:25:48.177Z,9.31
2018-02-15T15:28:15.705Z,10.04
2018-02-15T15:30:43.274Z,10.55
2018-02-15T15:33:10.841Z,10.19
2018-02-15T15:35:38.424Z,9.92
2018-02-15T15:38:05.978Z,9.72
2018-02-15T15:40:36.957Z,9.54
2018-02-15T15:43:04.478Z,9.40
2018-02-15T15:46:23.860Z,9.34
2018-02-15T15:48:51.387Z,9.26
2018-02-15T15:51:19.732Z,9.20
2018-02-15T15:53:47.315Z,9.01
2018-02-15T15:56:14.851Z,9.04
2018-02-15T15:58:42.389Z,8.97
2018-02-15T16:01:09.981Z,8.93
2018-02-15T16:03:37.520Z,8.87
2018-02-15T16:06:05.041Z,8.79
2018-02-15T16:08:32.581Z,8.77
2018-02-15T16:11:00.389Z,8.69
2018-02-15T16:13:27.920Z,8.66
2018-02-15T16:15:55.490Z,8.58
2018-02-15T16:18:23.024Z,8.57
2018-02-15T16:20:50.542Z,8.46
2018-02-15T16:23:18.082Z,8.45
2018-02-15T16:25:45.597Z,8.40
2018-02-15T16:28:13.115Z,8.32
2018-02-15T16:30:40.678Z,8.29
2018-02-15T16:33:08.220Z,8.23
2018-02-15T16:35:35.955Z,8.19
2018-02-15T16:38:03.487Z,8.13
2018-02-15T16:40:31.838Z,8.08
2018-02-15T16:42:59.391Z,8.04
2018-02-15T16:45:26.936Z,8.00
2018-02-15T16:47:54.506Z,7.97
2018-02-15T16:50:22.044Z,7.91
2018-02-15T16:52:49.594Z,7.89
2018-02-15T16:55:17.121Z,7.85
2018-02-15T16:57:44.746Z,7.81
2018-02-15T17:00:12.479Z,7.74
2018-02-15T17:02:39.993Z,7.67
2018-02-15T17:05:07.528Z,7.69
2018-02-15T17:07:35.104Z,7.63
2018-02-15T17:10:02.626Z,7.63
2018-02-15T17:12:30.152Z,7.59
2018-02-15T17:14:57.720Z,7.54
2018-02-15T17:17:25.242Z,7.52
2018-02-15T17:19:52.767Z,7.50
2018-02-15T17:22:20.345Z,7.48
2018-02-15T17:24:48.118Z,7.48
2018-02-15T17:27:15.772Z,7.46
2018-02-15T17:29:43.439Z,7.43
2018-02-15T17:32:11.010Z,7.38
2018-02-15T17:34:38.562Z,7.36
2018-02-15T17:37:06.093Z,7.37
2018-02-15T17:39:33.643Z,7.34
2018-02-15T17:42:01.179Z,7.28
2018-02-15T17:44:28.698Z,7.30
2018-02-15T17:46:56.256Z,7.67
2018-02-15T17:49:23.794Z,7.93
2018-02-15T17:51:51.550Z,7.81
2018-02-15T17:54:19.115Z,7.71
2018-02-15T17:56:46.707Z,7.64
2018-02-15T17:59:15.011Z,7.57
2018-02-15T18:01:42.593Z,7.56
2018-02-15T18:04:10.167Z,7.51
2018-02-15T18:06:37.711Z,7.46
2018-02-15T18:09:05.271Z,7.44
2018-02-15T18:11:32.803Z,7.43
2018-02-15T18:14:00.486Z,7.39
2018-02-15T18:16:28.114Z,7.38
2018-02-15T18:18:55.655Z,7.37
2018-02-15T18:21:23.768Z,7.34
2018-02-15T18:23:51.524Z,7.30
2018-02-15T18:26:19.068Z,7.29
2018-02-15T18:28:46.634Z,7.29
2018-02-15T18:31:14.179Z,7.27
2018-02-15T18:33:41.744Z,7.23
2018-02-15T18:36:09.282Z,7.21
2018-02-15T18:38:36.849Z,7.19
2018-02-15T18:41:04.410Z,7.18
2018-02-15T18:43:31.940Z,7.16
2018-02-15T18:45:59.504Z,7.17
2018-02-15T18:48:27.044Z,7.09
2018-02-15T18:50:54.592Z,7.13
2018-02-15T18:53:22.375Z,7.11
2018-02-15T18:55:49.915Z,7.10
2018-02-15T18:58:18.514Z,7.09
2018-02-15T19:00:46.206Z,7.07
2018-02-15T19:03:13.753Z,7.07
2018-02-15T19:05:41.527Z,7.01
2018-02-15T19:08:09.073Z,7.03
2018-02-15T19:10:36.612Z,7.01
2018-02-15T19:13:04.268Z,6.97
2018-02-15T19:15:32.065Z,6.99
2018-02-15T19:17:59.632Z,6.99
2018-02-15T19:20:27.238Z,6.97
2018-02-15T19:22:54.898Z,6.97
2018-02-15T19:25:22.451Z,6.97
2018-02-15T19:27:49.988Z,6.98
2018-02-15T19:30:17.541Z,6.93
2018-02-15T19:32:45.120Z,6.94
2018-02-15T19:35:13.843Z,6.93
2018-02-15T19:37:41.591Z,6.92
2018-02-15T19:40:09.114Z,6.88
2018-02-15T19:42:36.643Z,6.87
2018-02-15T19:45:04.209Z,6.88
2018-02-15T19:47:32.027Z,6.87
2018-02-15T19:49:59.549Z,6.85
2018-02-15T19:52:27.250Z,6.84
2018-02-15T19:54:55.068Z,6.82
2018-02-15T19:57:22.612Z,6.83
2018-02-15T19:59:50.285Z,6.80
2018-02-15T20:02:17.908Z,6.78
2018-02-15T20:04:45.467Z,6.79
2018-02-15T20:07:13.244Z,6.77
2018-02-15T20:09:40.808Z,6.75
2018-02-15T20:12:08.360Z,6.78
2018-02-15T20:14:36.044Z,6.74
2018-02-15T20:17:03.820Z,6.71
2018-02-15T20:19:31.541Z,6.70
2018-02-15T20:21:59.090Z,6.70
2018-02-15T20:24:26.655Z,6.70
2018-02-15T20:26:59.706Z,6.68
2018-02-15T20:29:27.521Z,6.68
2018-02-15T20:31:55.262Z,6.64
2018-02-15T20:34:23.206Z,6.64
2018-02-15T20:36:50.909Z,6.64
2018-02-15T20:39:24.087Z,6.57
2018-02-15T20:41:51.629Z,6.63
2018-02-15T20:44:19.200Z,6.61
2018-02-15T20:46:47.756Z,6.60
2018-02-15T20:49:20.805Z,6.53
2018-02-15T20:51:54.013Z,6.52
2018-02-15T20:54:27.063Z,6.57
2018-02-15T20:56:54.633Z,6.57
2018-02-15T20:59:22.707Z,6.57
2018-02-15T21:01:50.335Z,6.54
2018-02-15T21:04:17.879Z,6.53
2018-02-15T21:06:45.506Z,6.46
2018-02-15T21:09:13.346Z,6.53
2018-02-15T21:11:40.945Z,6.49
2018-02-15T21:14:08.504Z,6.51
2018-02-15T21:16:36.057Z,6.50
2018-02-15T21:19:03.707Z,6.49
2018-02-15T21:21:31.234Z,6.52
2018-02-15T21:23:58.775Z,6.48
2018-02-15T21:26:26.364Z,6.47
2018-02-15T21:28:53.934Z,6.48
2018-02-15T21:31:22.288Z,6.47
2018-02-15T21:33:49.843Z,6.44
2018-02-15T21:36:17.453Z,6.43
2018-02-15T21:38:45.042Z,6.44
2018-02-15T21:41:12.617Z,6.43
2018-02-15T21:43:40.151Z,6.43
2018-02-15T21:46:07.727Z,6.43
2018-02-15T21:48:35.258Z,6.41
2018-02-15T21:51:02.892Z,6.41
2018-02-15T21:53:30.645Z,6.41
2018-02-15T21:55:58.184Z,6.39
2018-02-15T21:58:25.710Z,6.38
2018-02-15T22:00:53.271Z,6.39
2018-02-15T22:03:20.796Z,6.38
2018-02-15T22:05:48.302Z,6.39
2018-02-15T22:08:15.852Z,6.39
2018-02-15T22:10:43.365Z,6.26
2018-02-15T22:13:10.915Z,6.39
2018-02-15T22:15:39.214Z,6.38
2018-02-15T22:18:06.724Z,6.36
2018-02-15T22:20:34.250Z,6.37
2018-02-15T22:23:01.786Z,6.35
2018-02-15T22:25:29.297Z,6.35
2018-02-15T22:27:56.826Z,6.32
2018-02-15T22:30:24.392Z,6.34
2018-02-15T22:32:51.917Z,6.36
2018-02-15T22:35:19.500Z,6.36
2018-02-15T22:37:47.036Z,6.35
2018-02-15T22:40:14.569Z,6.34
2018-02-15T22:42:42.089Z,6.34
2018-02-15T22:45:09.639Z,6.33
2018-02-15T22:47:37.169Z,6.36
2018-02-15T22:50:04.721Z,6.23
2018-02-15T22:52:32.270Z,6.31
2018-02-15T22:55:00.002Z,6.35
2018-02-15T22:57:27.536Z,6.35
2018-02-15T22:59:55.117Z,6.28
2018-02-15T23:02:22.661Z,6.37
2018-02-15T23:04:50.205Z,6.37
2018-02-15T23:07:17.759Z,6.42
2018-02-15T23:12:21.844Z,6.43
2018-02-15T23:14:49.380Z,6.41
2018-02-15T23:17:16.961Z,6.42
2018-02-15T23:19:44.495Z,6.41
2018-02-15T23:22:12.033Z,6.40
2018-02-15T23:24:39.559Z,6.40
2018-02-15T23:27:07.187Z,6.39
2018-02-15T23:29:34.753Z,6.37
2018-02-15T23:32:02.364Z,6.37
2018-02-15T23:34:29.945Z,6.34
2018-02-15T23:36:57.476Z,6.32
2018-02-15T23:39:25.016Z,6.31
2018-02-15T23:41:52.566Z,6.33
2018-02-15T23:44:20.102Z,6.32
2018-02-15T23:46:47.658Z,6.31
2018-02-15T23:49:15.197Z,6.32
2018-02-15T23:51:42.728Z,6.26
2018-02-15T23:54:10.279Z,6.29
2018-02-15T23:56:37.807Z,6.27
2018-02-15T23:59:05.334Z,6.23
